Time;durP1;ratioP1;P1;durP2;ratioP2;P2;SDS_P1;SDS_P2;PMS_P1;PMS_P2;Temp;Humidity;BMP_temperature;BMP_pressure;BME280_temperature;BME280_humidity;BME280_pressure;Samples;Min_cycle;Max_cycle;Signal;HPM_P1;HPM_P2
2021/09/27 00:01:03;;;;;;;9.68;8.68;;;;;;;16.96;100.00;100947.44;4940886;28;20047;-81
2021/09/27 00:03:31;;;;;;;12.00;9.10;;;;;;;16.93;100.00;100951.94;4957462;28;20052;-81
2021/09/27 00:05:58;;;;;;;13.57;10.02;;;;;;;16.91;100.00;100953.75;4959566;28;20055;-81
2021/09/27 00:08:26;;;;;;;10.75;8.95;;;;;;;16.94;100.00;100969.53;4957983;28;20047;-79
2021/09/27 00:11:13;;;;;;;10.80;9.27;;;;;;;16.95;100.00;100963.34;4954274;28;20051;-81
2021/09/27 00:13:47;;;;;;;12.07;8.82;;;;;;;16.97;100.00;100959.75;4939990;28;20043;-80
2021/09/27 00:16:17;;;;;;;;;;;;;;;17.00;100.00;100951.69;4978413;28;20078;-82
2021/09/27 00:18:44;;;;;;;9.43;7.32;;;;;;;17.01;100.00;100956.09;4981594;28;19922;-82
2021/09/27 00:21:22;;;;;;;11.20;7.97;;;;;;;17.03;100.00;100958.69;4966309;28;20043;-82
2021/09/27 00:23:49;;;;;;;13.95;9.95;;;;;;;17.01;100.00;100965.78;4923066;28;20055;-82
2021/09/27 00:26:18;;;;;;;10.85;8.35;;;;;;;17.00;100.00;100964.94;4954520;28;20055;-82
2021/09/27 00:28:45;;;;;;;15.27;8.45;;;;;;;17.02;100.00;100960.44;4961383;28;20075;-81
2021/09/27 00:31:13;;;;;;;17.52;10.20;;;;;;;17.02;100.00;100957.78;4934316;29;20047;-81
2021/09/27 00:33:40;;;;;;;17.13;9.90;;;;;;;17.01;100.00;100964.00;4960293;28;20436;-82
2021/09/27 00:36:13;;;;;;;13.27;10.23;;;;;;;17.05;100.00;100959.47;4956214;28;20436;-82
2021/09/27 00:38:40;;;;;;;18.15;13.90;;;;;;;17.06;100.00;100950.63;4955188;28;20491;-83
2021/09/27 00:41:12;;;;;;;17.63;12.77;;;;;;;17.05;100.00;100959.47;4955036;28;20078;-83
2021/09/27 00:43:41;;;;;;;14.30;10.68;;;;;;;17.03;100.00;100961.31;4955246;28;20066;-82
2021/09/27 00:46:17;;;;;;;14.82;10.02;;;;;;;17.02;100.00;100962.22;4960932;28;20047;-82
2021/09/27 00:48:44;;;;;;;15.93;11.48;;;;;;;17.01;100.00;100961.38;4946992;28;20461;-82
2021/09/27 00:51:16;;;;;;;10.95;9.00;;;;;;;17.03;100.00;100961.31;4958514;28;20047;-81
2021/09/27 00:53:57;;;;;;;13.27;10.82;;;;;;;17.03;100.00;100972.75;4956087;28;20035;-82
2021/09/27 00:56:33;;;;;;;15.38;10.32;;;;;;;17.04;100.00;100981.56;4958301;28;20545;-81
2021/09/27 00:59:01;;;;;;;12.93;10.20;;;;;;;17.02;100.00;100978.94;4955002;28;20637;-81
2021/09/27 01:01:28;;;;;;;16.13;11.98;;;;;;;17.04;100.00;100981.56;4953218;28;20115;-81
2021/09/27 01:03:57;;;;;;;19.88;12.60;;;;;;;17.03;100.00;100980.69;4953952;28;20047;-82
2021/09/27 01:06:52;;;;;;;16.80;11.23;;;;;;;17.02;100.00;100975.44;4974401;28;20538;-82
2021/09/27 01:09:49;;;;;;;12.82;9.63;;;;;;;17.02;100.00;100972.81;4982079;28;20058;-82
2021/09/27 01:12:52;;;;;;;17.33;12.25;;;;;;;17.04;100.00;100965.69;4954551;28;20043;-83
2021/09/27 01:15:47;;;;;;;13.25;10.13;;;;;;;17.04;100.00;100963.06;4936069;28;20063;-83
2021/09/27 01:18:35;;;;;;;15.05;10.95;;;;;;;17.06;100.00;100957.72;4945391;28;20047;-81
2021/09/27 01:21:33;;;;;;;11.10;9.23;;;;;;;17.06;100.00;100960.34;4957417;28;20043;-82
2021/09/27 01:24:51;;;;;;;16.48;11.32;;;;;;;17.05;100.00;100955.97;4962315;28;21307;-82
2021/09/27 01:28:15;;;;;;;11.48;9.48;;;;;;;17.06;100.00;100955.06;4965543;28;20055;-82
2021/09/27 01:30:53;;;;;;;19.10;11.47;;;;;;;17.05;100.00;100962.13;4945168;28;20050;-82
2021/09/27 01:33:28;;;;;;;19.35;13.32;;;;;;;17.01;100.00;100968.41;4960641;28;20043;-82
2021/09/27 01:36:14;;;;;;;20.70;14.27;;;;;;;16.97;100.00;100967.69;4970811;28;20447;-81
2021/09/27 01:39:13;;;;;;;22.48;14.52;;;;;;;16.91;100.00;100965.22;4959177;28;20062;-83
2021/09/27 01:42:12;;;;;;;27.13;15.85;;;;;;;16.87;100.00;100963.53;4974905;28;20064;-82
2021/09/27 01:44:46;;;;;;;19.15;13.93;;;;;;;16.82;100.00;100963.66;4944308;28;20047;-82
2021/09/27 01:47:24;;;;;;;21.85;12.85;;;;;;;16.83;100.00;100959.22;4966774;28;20050;-83
2021/09/27 01:50:19;;;;;;;17.33;12.57;;;;;;;16.80;100.00;100951.41;4945810;28;20047;-82
2021/09/27 01:53:18;;;;;;;20.20;12.25;;;;;;;16.82;100.00;100957.53;4956286;28;20067;-82
2021/09/27 01:56:00;;;;;;;18.95;13.68;;;;;;;16.83;100.00;100962.75;4928195;29;20238;-82
2021/09/27 01:59:23;;;;;;;21.88;15.18;;;;;;;16.84;100.00;100959.22;4960446;28;20055;-82
2021/09/27 02:03:01;;;;;;;18.98;13.07;;;;;;;16.86;100.00;100956.53;4954785;28;20058;-82
2021/09/27 02:05:44;;;;;;;20.73;14.07;;;;;;;16.84;100.00;100951.28;4904003;29;20059;-82
2021/09/27 02:08:25;;;;;;;19.08;13.55;;;;;;;16.84;100.00;100960.97;4945512;28;20051;-81
2021/09/27 02:11:17;;;;;;;17.35;12.95;;;;;;;16.85;100.00;100962.72;4945963;28;20047;-82
2021/09/27 02:13:57;;;;;;;21.75;14.05;;;;;;;16.84;100.00;100956.56;4958795;28;20069;-82
2021/09/27 02:17:02;;;;;;;18.23;12.77;;;;;;;16.86;100.00;100965.31;4953121;28;20047;-82
2021/09/27 02:19:56;;;;;;;19.52;13.02;;;;;;;16.87;100.00;100955.59;4954937;28;20074;-82
2021/09/27 02:22:34;;;;;;;18.15;10.90;;;;;;;16.86;100.00;100951.22;4950931;28;20047;-82
2021/09/27 02:25:13;;;;;;;20.48;13.80;;;;;;;16.87;100.00;100948.53;4969350;28;20043;-82
2021/09/27 02:27:41;;;;;;;15.80;11.18;;;;;;;16.86;100.00;100944.16;4959980;28;20122;-82
2021/09/27 02:30:13;;;;;;;21.40;14.52;;;;;;;16.84;100.00;100940.72;4960992;28;20046;-82
2021/09/27 02:32:54;;;;;;;23.35;14.68;;;;;;;16.83;100.00;100949.53;4967342;28;20047;-83
2021/09/27 02:35:30;;;;;;;17.70;12.00;;;;;;;16.81;100.00;100947.84;4963453;28;20079;-83
2021/09/27 02:38:11;;;;;;;21.40;14.40;;;;;;;16.79;100.00;100957.59;4961840;28;20055;-83
2021/09/27 02:40:57;;;;;;;22.20;15.00;;;;;;;16.75;100.00;100959.50;4962289;28;20069;-83
2021/09/27 02:43:24;;;;;;;24.77;16.65;;;;;;;16.75;100.00;100958.59;4961037;28;20789;-82
2021/09/27 02:45:52;;;;;;;23.45;14.93;;;;;;;16.73;100.00;100961.31;4960194;28;20062;-84
2021/09/27 02:48:33;;;;;;;22.10;13.90;;;;;;;16.72;100.00;100966.63;4966144;28;20130;-83
2021/09/27 02:51:00;;;;;;;21.35;15.30;;;;;;;16.71;100.00;100965.75;4943341;28;20070;-83
2021/09/27 02:53:26;;;;;;;32.53;16.17;;;;;;;16.72;100.00;100964.84;4949660;28;20042;-83
2021/09/27 02:56:31;;;;;;;20.48;13.27;;;;;;;16.73;100.00;100977.16;4944547;28;20051;-83
2021/09/27 02:59:34;;;;;;;21.02;13.95;;;;;;;16.75;100.00;100971.81;4975782;28;20039;-83
2021/09/27 03:02:37;;;;;;;23.52;15.55;;;;;;;16.75;100.00;100962.13;4960800;28;20054;-84
2021/09/27 03:05:44;;;;;;;19.83;13.70;;;;;;;16.75;100.00;100955.97;4964808;28;20043;-81
2021/09/27 03:08:30;;;;;;;22.63;15.60;;;;;;;16.74;100.00;100957.75;4962241;28;20075;-81
2021/09/27 03:11:29;;;;;;;19.80;13.60;;;;;;;16.73;100.00;100953.38;4956420;28;20453;-83
2021/09/27 03:14:43;;;;;;;20.67;13.98;;;;;;;16.72;100.00;100956.91;4943232;28;20061;-83
2021/09/27 03:17:39;;;;;;;19.02;14.05;;;;;;;16.69;100.00;100954.38;4961497;28;20055;-82
2021/09/27 03:20:25;;;;;;;20.95;14.68;;;;;;;16.66;100.00;100955.34;4938863;28;20039;-82
2021/09/27 03:23:33;;;;;;;20.83;14.48;;;;;;;16.65;100.00;100947.47;4958450;28;20046;-82
2021/09/27 03:26:59;;;;;;;19.90;14.27;;;;;;;16.62;100.00;100948.41;4973426;28;20497;-85
2021/09/27 03:29:58;;;;;;;16.85;12.82;;;;;;;16.64;100.00;100948.38;4954900;28;20584;-84
2021/09/27 03:32:51;;;;;;;20.73;13.93;;;;;;;16.61;100.00;100935.22;4953537;28;20059;-83
2021/09/27 03:35:40;;;;;;;21.58;15.05;;;;;;;16.60;100.00;100937.00;4960614;28;20182;-89
2021/09/27 03:38:28;;;;;;;24.95;15.88;;;;;;;16.59;100.00;100932.63;4956276;28;20054;-83
2021/09/27 03:41:35;;;;;;;23.30;15.27;;;;;;;16.57;100.00;100931.81;4955780;28;20032;-84
2021/09/27 03:44:13;;;;;;;22.40;14.68;;;;;;;16.56;100.00;100932.72;4961330;28;20031;-85
2021/09/27 03:47:13;;;;;;;18.20;14.07;;;;;;;16.56;100.00;100929.19;4966134;28;20491;-84
2021/09/27 03:50:16;;;;;;;22.40;13.95;;;;;;;16.55;100.00;100925.72;4959549;28;20054;-83
2021/09/27 03:52:55;;;;;;;19.80;14.63;;;;;;;16.54;100.00;100916.94;4954929;28;20135;-85
2021/09/27 03:55:53;;;;;;;18.45;12.27;;;;;;;16.54;100.00;100919.56;4960742;28;20053;-84
2021/09/27 03:58:30;;;;;;;14.68;12.13;;;;;;;16.56;100.00;100918.63;4953101;28;20049;-82
2021/09/27 04:01:02;;;;;;;22.10;15.40;;;;;;;16.54;100.00;100922.22;4947887;28;20050;-82
2021/09/27 04:04:15;;;;;;;24.10;14.75;;;;;;;16.55;100.00;100920.41;4954561;28;20036;-83
2021/09/27 04:07:19;;;;;;;19.77;13.15;;;;;;;16.57;100.00;100917.72;4965472;28;20047;-82
2021/09/27 04:10:19;;;;;;;21.35;14.75;;;;;;;16.55;100.00;100917.78;4958684;28;20435;-83
2021/09/27 04:13:17;;;;;;;25.60;15.38;;;;;;;16.56;100.00;100914.22;4956325;28;20085;-83
2021/09/27 04:16:18;;;;;;;21.63;15.50;;;;;;;16.54;100.00;100914.28;4959476;28;20077;-83
2021/09/27 04:19:10;;;;;;;21.48;15.70;;;;;;;16.54;100.00;100918.69;4945504;28;20063;-84
2021/09/27 04:21:47;;;;;;;20.67;16.25;;;;;;;16.52;100.00;100916.09;4942240;28;20042;-84
2021/09/27 04:24:39;;;;;;;22.15;15.07;;;;;;;16.52;100.00;100918.72;4951284;28;20040;-83
2021/09/27 04:27:29;;;;;;;19.05;15.20;;;;;;;16.51;100.00;100918.78;4938837;28;20053;-85
2021/09/27 04:30:07;;;;;;;20.77;15.88;;;;;;;16.50;100.00;100910.00;4952072;28;20118;-82
2021/09/27 04:33:25;;;;;;;20.10;13.75;;;;;;;16.50;100.00;100914.41;4953260;28;20055;-83
2021/09/27 04:36:11;;;;;;;23.38;15.65;;;;;;;16.46;100.00;100910.97;4964153;28;21260;-84
2021/09/27 04:38:38;;;;;;;23.63;16.63;;;;;;;16.44;100.00;100907.53;4939045;29;20047;-84
2021/09/27 04:41:30;;;;;;;17.27;13.85;;;;;;;16.43;100.00;100902.28;4952293;28;20122;-83
2021/09/27 04:44:18;;;;;;;21.65;15.73;;;;;;;16.42;100.00;100905.84;4939622;28;20036;-83
2021/09/27 04:47:21;;;;;;;25.63;16.60;;;;;;;16.40;100.00;100907.66;4970163;28;20150;-83
2021/09/27 04:50:07;;;;;;;22.05;16.27;;;;;;;16.39;100.00;100904.16;4954748;28;20114;-83
2021/09/27 04:53:21;;;;;;;26.60;16.63;;;;;;;16.42;100.00;100898.78;4954967;28;20479;-83
2021/09/27 04:56:39;;;;;;;23.63;16.67;;;;;;;16.46;100.00;100900.41;4938832;29;20050;-82
2021/09/27 04:59:51;;;;;;;23.17;16.60;;;;;;;16.49;100.00;100905.63;4961025;28;20106;-83
2021/09/27 05:02:53;;;;;;;23.75;15.95;;;;;;;16.50;100.00;100896.78;4958611;28;20050;-83
2021/09/27 05:05:58;;;;;;;21.38;15.70;;;;;;;16.51;100.00;100906.41;4945051;28;20521;-82
2021/09/27 05:09:04;;;;;;;25.70;17.02;;;;;;;16.55;100.00;100904.56;4955267;28;20127;-84
2021/09/27 05:12:37;;;;;;;30.45;18.15;;;;;;;16.57;100.00;100905.41;4961650;28;20051;-83
2021/09/27 05:15:41;;;;;;;22.35;15.35;;;;;;;16.60;100.00;100907.09;4941111;29;20055;-83
2021/09/27 05:18:54;;;;;;;25.20;17.80;;;;;;;16.62;100.00;100902.59;4942787;29;20086;-82
2021/09/27 05:22:06;;;;;;;21.40;15.23;;;;;;;16.64;100.00;100906.94;4949883;28;20074;-83
2021/09/27 05:25:16;;;;;;;19.33;14.55;;;;;;;16.65;100.00;100900.72;4951294;28;20051;-83
2021/09/27 05:28:23;;;;;;;18.52;15.23;;;;;;;16.65;100.00;100890.16;4973483;28;20058;-83
2021/09/27 05:31:24;;;;;;;23.35;15.30;;;;;;;16.64;100.00;100893.72;4979252;28;20047;-83
2021/09/27 05:34:29;;;;;;;21.27;15.40;;;;;;;16.63;100.00;100891.13;4958036;28;20062;-84
2021/09/27 05:37:24;;;;;;;21.63;16.25;;;;;;;16.61;100.00;100882.34;4954344;28;20047;-82
2021/09/27 05:40:28;;;;;;;22.65;15.25;;;;;;;16.57;100.00;100881.59;4960095;28;20043;-81
2021/09/27 05:43:45;;;;;;;24.97;15.87;;;;;;;16.57;100.00;100883.38;4958807;28;20039;-83
2021/09/27 05:46:35;;;;;;;15.95;12.82;;;;;;;16.51;100.00;100884.44;4955982;28;20537;-83
2021/09/27 05:49:55;;;;;;;19.23;14.77;;;;;;;16.43;100.00;100883.81;4956918;28;20039;-83
2021/09/27 05:52:46;;;;;;;24.15;16.75;;;;;;;16.31;100.00;100877.97;4922381;28;20062;-82
2021/09/27 05:55:51;;;;;;;31.05;18.70;;;;;;;16.22;100.00;100880.88;4975547;28;20066;-83
2021/09/27 05:58:40;;;;;;;26.60;18.10;;;;;;;16.14;100.00;100873.16;4958813;28;20069;-84
2021/09/27 06:01:30;;;;;;;27.55;18.92;;;;;;;16.10;100.00;100870.66;4965014;28;20479;-83
2021/09/27 06:04:44;;;;;;;24.90;16.95;;;;;;;16.05;100.00;100876.06;4966593;28;20039;-83
2021/09/27 06:07:22;;;;;;;34.42;19.05;;;;;;;16.02;100.00;100878.78;4978706;28;20053;-84
2021/09/27 06:10:00;;;;;;;26.15;17.02;;;;;;;16.02;100.00;100878.78;4970986;28;20143;-83
2021/09/27 06:12:55;;;;;;;26.88;16.55;;;;;;;16.01;100.00;100877.06;4965705;28;20059;-84
2021/09/27 06:15:49;;;;;;;24.42;15.48;;;;;;;16.01;100.00;100882.34;4968174;28;20134;-82
2021/09/27 06:18:49;;;;;;;27.42;18.77;;;;;;;15.99;100.00;100885.00;4964544;28;20046;-83
2021/09/27 06:21:59;;;;;;;22.27;15.95;;;;;;;15.98;100.00;100883.31;4960257;28;20359;-83
2021/09/27 06:24:53;;;;;;;29.02;19.25;;;;;;;16.00;100.00;100880.63;4962252;28;20054;-82
2021/09/27 06:27:29;;;;;;;33.15;20.27;;;;;;;16.01;100.00;100877.06;4963924;28;20047;-83
2021/09/27 06:30:26;;;;;;;31.73;18.23;;;;;;;16.03;100.00;100883.16;4957155;28;20039;-84
2021/09/27 06:33:09;;;;;;;27.02;18.08;;;;;;;16.11;100.00;100889.06;4974411;28;20066;-82
2021/09/27 06:35:39;;;;;;;25.60;17.40;;;;;;;16.23;100.00;100890.53;4978237;28;20043;-81
2021/09/27 06:38:11;;;;;;;24.10;16.67;;;;;;;16.35;100.00;100887.53;4956862;28;20275;-83
2021/09/27 06:40:42;;;;;;;26.55;16.00;;;;;;;16.49;100.00;100889.78;4958109;28;20055;-84
2021/09/27 06:43:11;;;;;;;26.02;16.42;;;;;;;16.62;100.00;100886.75;4958709;28;20376;-84
2021/09/27 06:45:39;;;;;;;20.40;15.75;;;;;;;16.74;100.00;100883.72;4945101;28;20055;-84
2021/09/27 06:48:06;;;;;;;23.65;16.42;;;;;;;16.89;100.00;100876.22;4959397;28;20135;-82
2021/09/27 06:50:33;;;;;;;19.20;14.10;;;;;;;17.05;100.00;100877.47;4946052;28;20055;-83
2021/09/27 06:53:00;;;;;;;27.70;15.50;;;;;;;17.22;100.00;100871.63;4943357;28;20051;-82
2021/09/27 06:55:26;;;;;;;17.40;14.15;;;;;;;17.36;100.00;100869.44;4956504;28;20561;-83
2021/09/27 06:57:53;;;;;;;22.88;16.13;;;;;;;17.39;100.00;100872.88;4940325;28;20391;-83
2021/09/27 07:00:21;;;;;;;20.60;15.15;;;;;;;17.30;100.00;100869.63;4954250;28;20418;-82
2021/09/27 07:02:49;;;;;;;23.10;16.00;;;;;;;17.25;100.00;100870.66;4960633;28;20039;-83
2021/09/27 07:05:16;;;;;;;20.55;14.18;;;;;;;17.22;100.00;100865.50;4958459;28;20094;-82
2021/09/27 07:07:43;;;;;;;21.17;15.45;;;;;;;17.33;100.00;100879.25;4962964;28;20047;-83
2021/09/27 07:10:15;;;;;;;20.13;14.75;;;;;;;17.58;100.00;100878.41;4969063;28;20051;-83
2021/09/27 07:12:42;;;;;;;18.20;14.45;;;;;;;17.91;100.00;100872.81;4960584;28;20050;-85
2021/09/27 07:15:09;;;;;;;18.48;13.93;;;;;;;18.18;100.00;100878.94;4963043;28;20463;-85
2021/09/27 07:17:38;;;;;;;21.30;13.73;;;;;;;18.50;100.00;100887.47;4959755;28;20055;-82
2021/09/27 07:20:13;;;;;;;16.77;11.35;;;;;;;18.74;100.00;100884.78;4965169;28;20050;-82
2021/09/27 07:22:41;;;;;;;15.25;11.45;;;;;;;18.77;100.00;100885.53;4973024;28;20548;-83
2021/09/27 07:25:11;;;;;;;16.30;11.73;;;;;;;18.81;100.00;100892.44;4943310;28;20080;-83
2021/09/27 07:27:38;;;;;;;14.65;11.25;;;;;;;18.96;100.00;100896.28;4961125;28;20055;-81
2021/09/27 07:30:07;;;;;;;13.75;11.23;;;;;;;19.17;100.00;100893.69;4958058;28;20057;-83
2021/09/27 07:32:34;;;;;;;12.48;10.20;;;;;;;19.46;100.00;100895.16;4956905;28;20046;-82
2021/09/27 07:35:01;;;;;;;13.35;10.65;;;;;;;19.81;100.00;100889.22;4955429;28;20055;-85
2021/09/27 07:37:31;;;;;;;11.60;10.40;;;;;;;20.03;100.00;100891.81;4959960;28;20056;-83
2021/09/27 07:39:57;;;;;;;13.75;10.23;;;;;;;20.22;98.26;100888.31;4964743;28;20079;-85
2021/09/27 07:42:29;;;;;;;12.32;10.52;;;;;;;20.36;96.13;100891.22;4945209;28;20055;-82
2021/09/27 07:44:56;;;;;;;11.70;10.48;;;;;;;20.53;95.57;100886.91;4971084;28;20051;-84
2021/09/27 07:47:22;;;;;;;14.52;10.80;;;;;;;20.76;92.45;100894.69;4945625;28;20110;-83
2021/09/27 07:49:49;;;;;;;11.63;9.70;;;;;;;20.87;93.33;100888.00;4949577;28;20042;-83
2021/09/27 07:52:16;;;;;;;12.27;10.73;;;;;;;20.64;91.52;100888.13;4958031;28;20126;-85
2021/09/27 07:54:42;;;;;;;10.77;9.38;;;;;;;20.35;92.17;100888.63;4967084;28;20101;-85
2021/09/27 07:57:09;;;;;;;12.10;9.73;;;;;;;20.02;91.92;100883.94;4957576;28;20110;-83
2021/09/27 07:59:36;;;;;;;10.43;8.90;;;;;;;19.76;92.67;100880.59;4960200;28;20047;-84
2021/09/27 08:02:05;;;;;;;11.95;10.75;;;;;;;19.58;93.21;100884.91;4954018;28;20070;-84
2021/09/27 08:04:34;;;;;;;14.80;9.68;;;;;;;19.53;93.71;100887.78;4946712;28;20126;-84
2021/09/27 08:07:01;;;;;;;11.13;10.13;;;;;;;19.76;93.36;100883.25;4960108;28;20171;-85
2021/09/27 08:09:29;;;;;;;10.15;8.85;;;;;;;20.38;91.60;100878.72;4961649;28;20097;-84
2021/09/27 08:12:00;;;;;;;10.38;8.65;;;;;;;21.19;88.50;100875.78;4962636;28;20056;-83
2021/09/27 08:14:26;;;;;;;12.23;11.02;;;;;;;21.93;83.13;100877.34;4945291;28;20093;-82
2021/09/27 08:16:53;;;;;;;10.77;9.70;;;;;;;22.31;80.89;100873.56;4961632;28;20050;-85
2021/09/27 08:19:24;;;;;;;11.48;10.18;;;;;;;22.34;78.47;100872.53;4963413;28;20061;-83
2021/09/27 08:21:53;;;;;;;10.02;9.00;;;;;;;22.24;80.14;100873.03;4956987;28;20043;-83
2021/09/27 08:24:20;;;;;;;11.57;9.27;;;;;;;22.12;79.63;100874.56;4943408;28;20073;-85
2021/09/27 08:26:47;;;;;;;14.45;10.70;;;;;;;21.76;80.74;100869.38;4941691;29;20052;-83
2021/09/27 08:29:14;;;;;;;12.10;10.27;;;;;;;21.32;82.20;100876.03;4946760;28;20138;-82
2021/09/27 08:31:41;;;;;;;11.07;9.95;;;;;;;20.91;84.25;100871.81;4962079;28;20050;-82
2021/09/27 08:34:12;;;;;;;14.48;10.02;;;;;;;20.74;85.41;100871.75;4943901;28;20050;-84
2021/09/27 08:36:39;;;;;;;11.57;9.82;;;;;;;21.25;84.67;100879.91;4949807;28;20101;-83
2021/09/27 08:39:07;;;;;;;13.70;10.20;;;;;;;22.09;79.83;100879.19;4955428;28;20566;-84
2021/09/27 08:41:52;;;;;;;11.57;10.15;;;;;;;22.80;76.28;100883.31;4963417;28;20053;-82
2021/09/27 08:44:31;;;;;;;14.55;9.80;;;;;;;23.39;73.60;100878.16;4956185;28;20042;-82
2021/09/27 08:47:34;;;;;;;10.93;9.10;;;;;;;24.05;71.76;100878.69;4970461;28;20425;-84
2021/09/27 08:50:09;;;;;;;10.00;8.90;;;;;;;24.28;68.07;100871.03;4964089;28;20106;-82
2021/09/27 08:52:39;;;;;;;12.77;9.50;;;;;;;24.18;68.16;100881.41;4958394;28;20071;-82
2021/09/27 08:55:11;;;;;;;11.40;9.52;;;;;;;24.32;66.57;100885.91;4959121;28;20490;-82
2021/09/27 08:58:15;;;;;;;11.40;8.80;;;;;;;24.36;67.64;100884.75;4947483;28;20047;-80
2021/09/27 09:00:52;;;;;;;9.63;8.60;;;;;;;23.95;67.51;100878.38;4953813;28;20557;-83
2021/09/27 09:04:07;;;;;;;10.70;7.88;;;;;;;23.64;69.28;100887.38;4961093;28;20994;-82
2021/09/27 09:06:46;;;;;;;13.02;9.70;;;;;;;23.29;69.63;100875.16;4959018;28;20054;-82
2021/09/27 09:09:40;;;;;;;10.98;9.05;;;;;;;22.93;71.05;100879.00;4963781;28;20055;-83
2021/09/27 09:12:39;;;;;;;11.15;9.32;;;;;;;22.58;71.51;100889.00;4955584;28;20051;-82
2021/09/27 09:15:13;;;;;;;11.25;9.75;;;;;;;22.24;72.63;100883.69;4954757;28;20051;-82
2021/09/27 09:17:56;;;;;;;9.85;8.25;;;;;;;22.09;74.04;100887.19;4968536;28;20034;-82
2021/09/27 09:20:40;;;;;;;10.75;9.75;;;;;;;22.11;74.06;100888.81;4967089;28;20036;-84
2021/09/27 09:23:10;;;;;;;11.63;10.52;;;;;;;22.06;73.89;100888.22;4951520;28;20044;-84
2021/09/27 09:25:40;;;;;;;15.10;9.75;;;;;;;21.99;73.89;100892.13;4942842;28;20123;-81
2021/09/27 09:28:11;;;;;;;11.38;10.02;;;;;;;21.97;74.53;100891.38;4955813;28;20054;-82
2021/09/27 09:31:13;;;;;;;11.80;9.35;;;;;;;22.08;73.70;100888.13;4940317;28;20071;-82
2021/09/27 09:33:57;;;;;;;14.48;12.10;;;;;;;22.36;72.94;100897.31;4940280;28;20078;-83
2021/09/27 09:36:35;;;;;;;12.50;9.38;;;;;;;22.95;71.04;100898.44;4962405;28;20043;-83
2021/09/27 09:39:14;;;;;;;12.38;9.93;;;;;;;23.21;68.96;100892.59;4961439;28;20075;-83
2021/09/27 09:41:48;;;;;;;11.23;8.80;;;;;;;23.16;69.45;100894.69;4948745;28;20404;-82
2021/09/27 09:44:33;;;;;;;9.98;8.80;;;;;;;22.88;68.70;100885.53;4962951;28;20039;-84
2021/09/27 09:47:22;;;;;;;12.30;9.82;;;;;;;22.92;68.72;100881.78;4967049;28;20043;-82
2021/09/27 09:50:03;;;;;;;9.38;8.05;;;;;;;23.03;69.30;100887.34;4951037;28;20044;-82
2021/09/27 09:52:48;;;;;;;10.43;7.85;;;;;;;23.20;68.20;100882.88;4963322;28;20071;-82
2021/09/27 09:56:04;;;;;;;9.45;8.65;;;;;;;23.00;67.83;100878.63;4946764;28;20067;-81
2021/09/27 09:58:44;;;;;;;9.30;8.40;;;;;;;22.89;69.30;100876.59;4963158;28;20075;-84
2021/09/27 10:01:30;;;;;;;9.07;8.18;;;;;;;22.93;69.11;100872.78;4982213;28;20133;-84
2021/09/27 10:04:06;;;;;;;12.25;8.90;;;;;;;23.05;69.00;100874.78;4959717;28;20130;-83
2021/09/27 10:06:47;;;;;;;10.32;8.50;;;;;;;23.10;69.00;100874.50;4959169;28;20095;-82
2021/09/27 10:09:46;;;;;;;9.15;8.25;;;;;;;23.05;69.41;100872.09;4962512;28;20122;-82
2021/09/27 10:12:37;;;;;;;8.93;8.05;;;;;;;23.05;69.54;100874.78;4979710;28;20177;-83
2021/09/27 10:15:05;;;;;;;9.02;7.25;;;;;;;23.18;69.44;100880.28;4964670;28;20046;-83
2021/09/27 10:17:38;;;;;;;8.23;7.43;;;;;;;24.05;65.49;100873.34;4965564;28;20047;-82
2021/09/27 10:20:20;;;;;;;10.25;7.63;;;;;;;25.19;60.54;100854.44;4964863;28;20147;-82
2021/09/27 10:23:00;;;;;;;9.63;6.35;;;;;;;26.17;56.14;100869.22;4965208;28;20050;-83
2021/09/27 10:25:46;;;;;;;9.50;6.50;;;;;;;27.35;53.78;100872.22;4949933;28;20058;-82
2021/09/27 10:28:22;;;;;;;6.28;5.13;;;;;;;28.15;51.95;100867.88;4949938;28;20047;-82
2021/09/27 10:31:00;;;;;;;6.03;5.13;;;;;;;27.62;51.85;100873.78;4972481;28;20098;-83
2021/09/27 10:33:34;;;;;;;9.50;5.45;;;;;;;26.99;53.49;100874.91;4961943;28;20081;-81
2021/09/27 10:36:08;;;;;;;6.35;5.28;;;;;;;27.43;52.34;100871.66;4964637;28;20459;-81
2021/09/27 10:38:53;;;;;;;5.93;4.30;;;;;;;28.07;49.09;100871.19;4960621;28;20099;-82
2021/09/27 10:41:45;;;;;;;5.15;4.30;;;;;;;28.54;48.51;100866.47;4956060;28;20055;-84
2021/09/27 10:44:25;;;;;;;6.00;5.15;;;;;;;28.88;46.15;100858.34;4946253;28;20042;-84
2021/09/27 10:47:02;;;;;;;8.30;4.78;;;;;;;29.52;44.13;100870.06;4958438;28;20059;-83
2021/09/27 10:49:42;;;;;;;4.43;4.07;;;;;;;29.89;43.94;100865.19;4955986;28;20522;-84
2021/09/27 10:52:49;;;;;;;4.97;4.57;;;;;;;30.58;41.77;100860.91;4951883;28;20919;-83
2021/09/27 10:55:24;;;;;;;4.65;4.20;;;;;;;30.82;42.53;100861.38;5031352;23;20069;-87
2021/09/27 10:58:10;;;;;;;5.05;4.65;;;;;;;31.03;40.32;100860.38;4971881;28;20039;-85
2021/09/27 11:00:55;;;;;;;4.78;4.18;;;;;;;30.65;41.23;100865.59;4954885;28;20051;-85
2021/09/27 11:03:33;;;;;;;4.13;3.83;;;;;;;30.06;42.75;100861.00;4959567;28;20541;-88
2021/09/27 11:06:52;;;;;;;4.53;3.72;;;;;;;29.01;43.56;100874.34;4973279;28;20508;-85
2021/09/27 11:09:28;;;;;;;6.45;4.47;;;;;;;27.65;46.15;100871.72;4985793;28;20054;-86
2021/09/27 11:12:12;;;;;;;6.72;4.05;;;;;;;26.34;49.35;100881.44;4972718;28;20087;-88
2021/09/27 11:14:39;;;;;;;4.25;3.63;;;;;;;25.65;50.85;100877.25;4959502;28;20051;-85
2021/09/27 11:17:10;;;;;;;4.53;4.00;;;;;;;25.28;51.19;100879.75;4989742;28;20150;-86
2021/09/27 11:19:42;;;;;;;5.55;3.22;;;;;;;25.44;51.05;100879.59;4971585;28;20694;-84
2021/09/27 11:22:15;;;;;;;5.07;3.60;;;;;;;26.22;49.60;100867.06;4971466;28;20065;-84
2021/09/27 11:24:43;;;;;;;6.70;4.18;;;;;;;26.63;48.34;100868.56;4970934;28;20079;-85
2021/09/27 11:27:34;;;;;;;4.20;3.65;;;;;;;26.29;48.61;100864.81;4970573;28;20041;-86
2021/09/27 11:30:31;;;;;;;4.18;3.83;;;;;;;25.75;49.84;100867.59;4986801;28;20543;-85
2021/09/27 11:33:22;;;;;;;3.78;3.47;;;;;;;25.38;50.73;100869.28;4990921;28;20050;-86
2021/09/27 11:35:49;;;;;;;4.55;4.15;;;;;;;25.00;52.27;100865.50;4958369;28;20359;-83
2021/09/27 11:38:16;;;;;;;4.32;3.97;;;;;;;24.76;52.95;100862.66;4975672;28;20077;-84
2021/09/27 11:40:45;;;;;;;4.05;3.25;;;;;;;24.65;53.60;100859.81;4975064;28;20052;-83
2021/09/27 11:43:26;;;;;;;4.40;4.10;;;;;;;24.17;54.55;100869.03;4972368;28;20045;-84
2021/09/27 11:46:38;;;;;;;4.30;3.90;;;;;;;24.41;54.47;100861.25;4965429;28;20035;-86
2021/09/27 11:49:22;;;;;;;5.88;3.40;;;;;;;26.08;50.40;100854.63;4954152;28;20043;-85
2021/09/27 11:52:30;;;;;;;5.00;3.42;;;;;;;27.80;46.26;100848.13;4955451;29;20050;-83
2021/09/27 11:55:06;;;;;;;4.47;3.78;;;;;;;27.86;45.47;100853.03;4954531;29;20455;-84
2021/09/27 11:57:50;;;;;;;5.43;3.50;;;;;;;26.96;47.38;100847.41;4936066;29;20557;-85
2021/09/27 12:00:26;;;;;;;4.20;3.80;;;;;;;26.21;49.24;100844.72;4952979;28;20051;-85
2021/09/27 12:03:05;;;;;;;3.95;3.65;;;;;;;25.44;50.87;100836.72;4954989;28;20137;-83
2021/09/27 12:05:48;;;;;;;3.75;3.55;;;;;;;24.60;53.02;100839.53;4968521;28;20062;-84
2021/09/27 12:08:57;;;;;;;3.55;3.25;;;;;;;24.08;54.50;100838.38;4970584;28;20397;-84
2021/09/27 12:11:24;;;;;;;3.85;3.45;;;;;;;24.02;54.88;100835.22;4955390;28;20042;-86
2021/09/27 12:13:59;;;;;;;4.68;3.42;;;;;;;24.07;55.18;100839.31;4972299;28;20043;-85
2021/09/27 12:16:31;;;;;;;3.88;3.40;;;;;;;23.97;55.15;100848.03;4977273;28;20055;-88
2021/09/27 12:19:03;;;;;;;4.15;3.38;;;;;;;23.81;56.00;100848.09;4994835;28;20089;-85
2021/09/27 12:21:40;;;;;;;4.90;3.70;;;;;;;23.59;56.88;100844.88;4957459;28;20078;-84
2021/09/27 12:24:27;;;;;;;4.38;3.97;;;;;;;23.45;57.33;100839.53;4954589;28;20051;-83